createdAt,value
2018-07-24T00:02:27.638Z,20.0
2018-07-24T00:07:27.271Z,19.9
2018-07-24T00:12:27.918Z,19.8
2018-07-24T00:17:27.896Z,19.8
2018-07-24T00:22:27.945Z,19.8
2018-07-24T00:27:29.075Z,19.7
2018-07-24T00:32:29.063Z,19.7
2018-07-24T00:37:28.223Z,19.5
2018-07-24T00:42:27.872Z,19.5
2018-07-24T00:47:27.734Z,19.4
2018-07-24T00:52:27.936Z,19.4
2018-07-24T00:57:28.061Z,19.3
2018-07-24T01:02:28.817Z,19.3
2018-07-24T01:07:27.710Z,19.2
2018-07-24T01:12:27.962Z,19.2
2018-07-24T01:17:28.136Z,19.1
2018-07-24T01:22:27.292Z,19.0
2018-07-24T01:27:26.904Z,19.0
2018-07-24T01:32:26.900Z,18.9
2018-07-24T01:37:27.083Z,18.8
2018-07-24T01:42:27.882Z,18.7
2018-07-24T01:47:27.573Z,18.7
2018-07-24T01:52:27.245Z,18.7
2018-07-24T01:57:27.257Z,18.7
2018-07-24T02:02:27.590Z,18.7
2018-07-24T02:07:27.334Z,18.6
2018-07-24T02:12:27.292Z,18.6
2018-07-24T02:17:27.657Z,18.5
2018-07-24T02:22:28.389Z,18.4
2018-07-24T02:27:28.204Z,18.4
2018-07-24T02:32:27.078Z,18.3
2018-07-24T02:37:27.588Z,18.3
2018-07-24T02:42:26.959Z,18.4
2018-07-24T02:47:28.014Z,18.3
2018-07-24T02:52:27.961Z,18.3
2018-07-24T02:57:27.736Z,18.3
2018-07-24T03:02:27.529Z,18.2
2018-07-24T03:07:27.979Z,18.0
2018-07-24T03:12:28.197Z,17.9
2018-07-24T03:17:28.548Z,17.9
2018-07-24T03:22:28.130Z,17.9
2018-07-24T03:27:27.960Z,17.9
2018-07-24T03:32:27.830Z,17.9
2018-07-24T03:37:28.571Z,17.8
2018-07-24T03:42:27.564Z,17.8
2018-07-24T03:47:28.205Z,17.8
2018-07-24T03:52:28.357Z,17.8
2018-07-24T03:57:28.151Z,17.6
2018-07-24T04:02:28.038Z,17.6
2018-07-24T04:07:27.757Z,17.6
2018-07-24T04:12:27.607Z,17.6
2018-07-24T04:17:29.208Z,17.6
2018-07-24T04:22:27.853Z,17.6
2018-07-24T04:27:28.663Z,17.7
2018-07-24T04:32:28.596Z,17.6
2018-07-24T04:37:27.352Z,17.7
2018-07-24T04:42:28.212Z,17.8
2018-07-24T04:47:27.623Z,17.8
2018-07-24T04:52:27.877Z,17.9
2018-07-24T04:57:28.284Z,18.1
2018-07-24T05:02:27.901Z,18.2
2018-07-24T05:07:28.257Z,18.2
2018-07-24T05:12:28.176Z,18.4
2018-07-24T05:17:28.737Z,18.6
2018-07-24T05:22:28.241Z,19.0
2018-07-24T05:27:27.841Z,18.9
2018-07-24T05:32:28.126Z,19.2
2018-07-24T05:37:27.834Z,19.4
2018-07-24T05:42:28.110Z,19.7
2018-07-24T05:47:28.436Z,19.9
2018-07-24T05:52:27.957Z,20.2
2018-07-24T05:57:28.604Z,20.4
2018-07-24T06:02:28.335Z,20.6
2018-07-24T06:07:27.781Z,21.1
2018-07-24T06:12:28.431Z,21.0
2018-07-24T06:17:28.575Z,21.3
2018-07-24T06:22:28.337Z,21.6
2018-07-24T06:27:28.459Z,21.9
2018-07-24T06:32:27.428Z,22.2
2018-07-24T06:37:27.985Z,22.5
2018-07-24T06:42:27.474Z,23.1
2018-07-24T06:47:28.744Z,23.1
2018-07-24T06:52:27.603Z,23.4
2018-07-24T06:57:27.567Z,23.7
2018-07-24T07:02:28.295Z,23.9
2018-07-24T07:07:28.430Z,24.2
2018-07-24T07:12:28.094Z,24.6
2018-07-24T07:17:28.609Z,24.9
2018-07-24T07:22:28.189Z,25.3
2018-07-24T07:27:28.243Z,25.6
2018-07-24T07:32:28.997Z,25.9
2018-07-24T07:37:28.597Z,26.5
2018-07-24T07:42:27.840Z,26.5
2018-07-24T07:47:27.915Z,26.9
2018-07-24T07:52:28.335Z,27.3
2018-07-24T07:57:27.470Z,27.6
2018-07-24T08:02:27.843Z,28.3
2018-07-24T08:07:28.214Z,28.6
2018-07-24T08:12:27.397Z,28.6
2018-07-24T08:17:28.570Z,29.2
2018-07-24T08:22:28.390Z,29.1
2018-07-24T08:27:28.290Z,29.4
2018-07-24T08:32:28.052Z,29.9
2018-07-24T08:37:27.197Z,29.9
2018-07-24T08:42:28.261Z,30.0
2018-07-24T08:47:27.698Z,30.5
2018-07-24T08:52:27.392Z,30.4
2018-07-24T08:57:28.109Z,30.5
2018-07-24T09:02:28.489Z,30.8
2018-07-24T09:07:29.224Z,30.7
2018-07-24T09:12:27.682Z,31.0
2018-07-24T09:17:27.994Z,31.3
2018-07-24T09:22:27.660Z,31.7
2018-07-24T09:27:27.870Z,31.8
2018-07-24T09:32:27.791Z,32.1
2018-07-24T09:37:27.767Z,32.4
2018-07-24T09:42:27.651Z,32.6
2018-07-24T09:47:28.256Z,32.9
2018-07-24T09:52:28.378Z,32.9
2018-07-24T09:57:27.598Z,33.1
2018-07-24T10:02:28.003Z,33.1
2018-07-24T10:07:27.716Z,33.3
2018-07-24T10:12:28.338Z,33.4
2018-07-24T10:17:28.309Z,33.4
2018-07-24T10:22:27.756Z,33.9
2018-07-24T10:27:27.942Z,33.9
2018-07-24T10:32:27.902Z,34.3
2018-07-24T10:37:27.974Z,34.3
2018-07-24T10:42:27.434Z,34.5
2018-07-24T10:47:28.779Z,34.6
2018-07-24T10:52:27.168Z,34.7
2018-07-24T10:57:27.731Z,34.6
2018-07-24T11:02:28.076Z,34.7
2018-07-24T11:07:28.059Z,34.9
2018-07-24T11:12:28.022Z,35.0
2018-07-24T11:17:28.604Z,35.2
2018-07-24T11:22:28.563Z,35.3
2018-07-24T11:27:27.847Z,35.5
2018-07-24T11:32:28.192Z,35.9
2018-07-24T11:37:28.230Z,35.9
2018-07-24T11:42:27.544Z,36.1
2018-07-24T11:47:27.933Z,36.3
2018-07-24T11:52:27.541Z,36.4
2018-07-24T11:57:27.861Z,36.7
2018-07-24T12:02:28.976Z,36.8
2018-07-24T12:07:28.623Z,36.8
2018-07-24T12:12:28.610Z,36.8
2018-07-24T12:17:28.410Z,37.1
2018-07-24T12:22:28.086Z,37.4
2018-07-24T12:27:27.896Z,37.7
2018-07-24T12:32:27.718Z,37.8
2018-07-24T12:37:27.933Z,38.0
2018-07-24T12:42:27.927Z,38.3
2018-07-24T12:47:28.077Z,38.2
2018-07-24T12:52:27.848Z,38.2
2018-07-24T12:57:28.299Z,38.6
2018-07-24T13:02:28.402Z,38.9
2018-07-24T13:07:27.794Z,38.9
2018-07-24T13:12:27.945Z,39.1
2018-07-24T13:17:29.740Z,39.1
2018-07-24T13:22:27.742Z,39.7
2018-07-24T13:27:28.651Z,40.0
2018-07-24T13:32:27.613Z,39.9
2018-07-24T13:37:27.558Z,40.0
2018-07-24T13:42:28.568Z,40.2
2018-07-24T13:47:27.952Z,40.7
2018-07-24T13:52:27.886Z,41.1
2018-07-24T13:57:28.173Z,41.1
2018-07-24T14:02:27.714Z,41.4
2018-07-24T14:07:27.648Z,42.0
2018-07-24T14:12:28.435Z,42.0
2018-07-24T14:17:27.900Z,42.0
2018-07-24T14:22:28.780Z,42.0
2018-07-24T14:27:27.584Z,42.0
2018-07-24T14:32:28.522Z,42.0
2018-07-24T14:37:27.618Z,43.0
2018-07-24T14:42:27.224Z,44.0
2018-07-24T14:47:28.814Z,44.0
2018-07-24T14:52:27.504Z,46.5
2018-07-24T14:57:28.054Z,46.5
2018-07-24T15:02:28.031Z,49.6
2018-07-24T15:07:27.991Z,49.7
2018-07-24T15:12:27.840Z,52.1
2018-07-24T15:17:28.353Z,52.1
2018-07-24T15:22:28.492Z,53.2
2018-07-24T15:27:27.737Z,54.4
2018-07-24T15:32:28.345Z,55.6
2018-07-24T15:37:27.496Z,55.8
2018-07-24T15:42:28.132Z,55.8
2018-07-24T15:47:28.410Z,56.2
2018-07-24T15:52:27.444Z,56.9
2018-07-24T15:57:28.001Z,57.1
2018-07-24T16:02:27.680Z,57.2
2018-07-24T16:07:27.503Z,57.8
2018-07-24T16:12:27.648Z,58.4
2018-07-24T16:17:28.794Z,58.4
2018-07-24T16:22:27.430Z,59.2
2018-07-24T16:27:27.982Z,59.4
2018-07-24T16:32:28.180Z,59.4
2018-07-24T16:37:28.544Z,59.4
2018-07-24T16:42:27.935Z,59.4
2018-07-24T16:47:27.795Z,59.3
2018-07-24T16:52:27.553Z,59.3
2018-07-24T16:57:28.349Z,59.0
2018-07-24T17:02:28.289Z,58.9
2018-07-24T17:07:28.575Z,58.5
2018-07-24T17:12:29.234Z,58.1
2018-07-24T17:17:29.172Z,57.6
2018-07-24T17:22:27.746Z,57.1
2018-07-24T17:27:27.938Z,56.4
2018-07-24T17:32:27.509Z,55.9
2018-07-24T17:37:27.839Z,55.4
2018-07-24T17:42:28.049Z,55.0
2018-07-24T17:47:28.212Z,53.2
2018-07-24T17:52:28.011Z,52.4
2018-07-24T17:57:27.932Z,52.4
2018-07-24T18:02:29.188Z,51.6
2018-07-24T18:07:28.354Z,47.7
2018-07-24T18:12:28.129Z,47.6
2018-07-24T18:17:28.456Z,43.6
2018-07-24T18:22:27.977Z,40.8
2018-07-24T18:27:27.717Z,39.1
2018-07-24T18:32:28.505Z,36.6
2018-07-24T18:37:27.945Z,36.5
2018-07-24T18:42:27.622Z,35.6
2018-07-24T18:47:28.953Z,34.0
2018-07-24T18:52:28.197Z,33.4
2018-07-24T18:57:28.169Z,33.4
2018-07-24T19:02:28.299Z,32.3
2018-07-24T19:07:28.712Z,32.2
2018-07-24T19:12:27.858Z,31.2
2018-07-24T19:17:27.673Z,31.2
2018-07-24T19:22:27.246Z,30.8
2018-07-24T19:27:27.196Z,30.3
2018-07-24T19:32:28.433Z,29.9
2018-07-24T19:37:28.332Z,29.5
2018-07-24T19:42:27.585Z,29.0
2018-07-24T19:47:27.802Z,28.5
2018-07-24T19:52:28.477Z,28.1
2018-07-24T19:57:27.193Z,27.8
2018-07-24T20:02:27.958Z,27.6
2018-07-24T20:07:27.674Z,27.2
2018-07-24T20:12:27.816Z,26.9
2018-07-24T20:17:27.820Z,26.7
2018-07-24T20:22:28.164Z,26.1
2018-07-24T20:27:27.436Z,25.9
2018-07-24T20:32:27.744Z,25.9
2018-07-24T20:37:27.632Z,25.7
2018-07-24T20:42:27.866Z,25.6
2018-07-24T20:47:28.166Z,25.1
2018-07-24T20:52:26.942Z,25.1
2018-07-24T20:57:27.548Z,24.9
2018-07-24T21:02:27.640Z,24.7
2018-07-24T21:07:27.530Z,24.5
2018-07-24T21:12:28.368Z,24.3
2018-07-24T21:17:27.485Z,24.2
2018-07-24T21:22:27.812Z,24.0
2018-07-24T21:27:27.477Z,23.7
2018-07-24T21:32:26.960Z,23.7
2018-07-24T21:37:27.528Z,23.7
2018-07-24T21:42:27.714Z,23.6
2018-07-24T21:47:27.233Z,23.6
2018-07-24T21:52:27.877Z,23.6
2018-07-24T21:57:28.109Z,23.4
2018-07-24T22:02:27.658Z,23.1
2018-07-24T22:07:28.146Z,22.8
2018-07-24T22:12:27.500Z,22.8
2018-07-24T22:23:05.360Z,22.8
2018-07-24T22:28:03.519Z,22.7
2018-07-24T22:33:05.003Z,22.8
2018-07-24T22:38:05.661Z,22.7
2018-07-24T22:43:03.638Z,22.7
2018-07-24T22:48:04.233Z,22.6
2018-07-24T22:53:04.461Z,22.5
2018-07-24T22:58:04.152Z,22.2
2018-07-24T23:03:04.317Z,22.2
2018-07-24T23:08:05.031Z,22.1
2018-07-24T23:12:27.588Z,22.1
2018-07-24T23:17:27.882Z,21.9
2018-07-24T23:22:27.289Z,21.9
2018-07-24T23:27:27.568Z,21.9
2018-07-24T23:32:26.797Z,21.8
2018-07-24T23:37:28.043Z,21.7
2018-07-24T23:42:26.746Z,21.7
2018-07-24T23:47:27.266Z,21.4
2018-07-24T23:52:27.255Z,21.4
2018-07-24T23:57:27.101Z,21.3
